Terminal Aerodrome Forecast
Issued by NWS Shreveport, LA

Home | Current Version | Previous Version | Text Only | Print | Product List | Glossary On
Versions: 1 2 3 4 5 6 7 8 9 10 11 12 13 14 15 16 17 18 19 20
105
FTUS44 KSHV 282105 AAA
TAFLFK
TAF AMD
KLFK 282105Z 2821/2918 10008KT P6SM VCTS SCT020 BKN040CB
      TEMPO 2821/2824 VRB10G20KT 2SM TSRA BKN020CB
     FM290100 VRB03KT P6SM VCSH SCT040 BKN070
     FM290600 VRB03KT P6SM FEW070 BKN150
     FM291500 03007KT P6SM VCSH SCT040 BKN070=

USA.gov is the U.S. government's official web portal to all federal, state and local government web resources and services.